^^
Station Historical Data
Daily Summary for January 11, 2018 Units:  Metric    English   Both
« Previous Day
Next Day »
Daily Weekly Monthly Yearly Custom
  High: Low: Average:
Temperature: -17.8 °C 26.2 °C 25.5 °C
Dew Point: -17.8 °C 8.8 °C 8 °C
Humidity: Humidity% 29% 30%
Wind Speed: 0km/h 13km/h 21.7km/h
Wind Gust: 0km/h - -
Wind- - SSW
Pressure: 0 hPa 1005.3 hPa -
Precipitation: 0 mm    
Historical Graphs
 
 
Tabular Data for January 11, 2018
Time Temperature Dew Point Pressure Wind Wind Speed Wind Gust Humidity Rainfall Rate (Hourly) solar Conditions
-17.8 °C -17.8 °C 0 hPa Calm     Humidity% 0 mm SolarRadiationWatts/m^2 W/m2 Conditions
22:07 28.9 °C 9.1 °C 1005.3 hPa SSW 28.8 km/h 30.6 km/h 29% 0 mm 0.0 W/m2
22:12 28.8 °C 9 °C 1005.6 hPa SSW 22.7 km/h 29 km/h 29% 0 mm 0.0 W/m2
22:17 28.6 °C 8.8 °C 1005.6 hPa SSW 27.4 km/h 30.6 km/h 29% 0 mm 0.0 W/m2
22:22 28.3 °C 9.1 °C 1005.6 hPa SSW 27.4 km/h 29 km/h 30% 0 mm 0.0 W/m2
22:27 28.2 °C 9 °C 1005.6 hPa SSW 27.4 km/h 30.6 km/h 30% 0 mm 0.0 W/m2
22:33 28 °C 8.8 °C 1005.6 hPa SSW 16.3 km/h 29 km/h 30% 0 mm 0.0 W/m2
22:38 27.9 °C 9.2 °C 1005.6 hPa SSW 20.9 km/h 27.4 km/h 31% 0 mm 0.0 W/m2
22:43 27.8 °C 9.1 °C 1005.6 hPa SSW 22.7 km/h 27.4 km/h 31% 0 mm 0.0 W/m2
22:48 27.7 °C 9 °C 1005.6 hPa SSW 24.1 km/h 27.4 km/h 31% 0 mm 0.0 W/m2
22:53 27.7 °C 9 °C 1006 hPa SSW 25.9 km/h 25.9 km/h 31% 0 mm 0.0 W/m2
23:03 27.4 °C 9.2 °C 1006 hPa SSW 27.4 km/h 29 km/h 32% 0 mm 0.0 W/m2
23:08 27.3 °C 9.2 °C 1006 hPa South 30.6 km/h 33.8 km/h 32% 0 mm 0.0 W/m2
23:13 27.3 °C 9.2 °C 1006 hPa SSW 25.9 km/h 27.4 km/h 32% 0 mm 0.0 W/m2
23:18 27.2 °C 9.1 °C 1006 hPa SSW 28.8 km/h 30.6 km/h 32% 0 mm 0.0 W/m2
23:23 27.1 °C 9.4 °C 1006 hPa SSW 16.3 km/h 24.1 km/h 33% 0 mm 0.0 W/m2
23:28 26.9 °C 9.3 °C 1006 hPa SSW 24.1 km/h 25.7 km/h 33% 0 mm 0.0 W/m2
23:33 26.8 °C 9.2 °C 1006 hPa SSW 24.1 km/h 25.7 km/h 33% 0 mm 0.0 W/m2
23:38 26.6 °C 9.4 °C 1006 hPa SSW 20.9 km/h 24.1 km/h 34% 0 mm 0.0 W/m2
23:43 26.5 °C 9.4 °C 1006 hPa SSW 14.3 km/h 24.1 km/h 34% 0 mm 0.0 W/m2
23:48 26.4 °C 9.3 °C 1006 hPa SSW 13 km/h 22.5 km/h 34% 0 mm 0.0 W/m2
23:53 26.3 °C 9.2 °C 1006.3 hPa SSW 16.3 km/h 22.5 km/h 34% 0 mm 0.0 W/m2
23:58 26.2 °C 9.5 °C 1006 hPa SSW 16.3 km/h 19.3 km/h 35% 0 mm 0.0 W/m2
Canyon Roadhouse, Fishriver Canyon, Namibia
Compliments of Weather Underground - 1.75 mb